createdAt,value
2022-12-09T00:03:23.442Z,20.00
2022-12-09T00:09:26.557Z,21.00
2022-12-09T00:15:28.981Z,23.00
2022-12-09T00:21:33.041Z,23.75
2022-12-09T00:27:35.207Z,21.50
2022-12-09T00:33:37.756Z,22.00
2022-12-09T00:39:40.101Z,23.25
2022-12-09T00:45:42.950Z,18.50
2022-12-09T00:51:46.425Z,20.75
2022-12-09T00:57:48.667Z,22.50
2022-12-09T01:03:51.031Z,21.50
2022-12-09T01:09:54.167Z,18.00
2022-12-09T01:15:56.534Z,16.50
2022-12-09T01:21:59.627Z,17.75
2022-12-09T01:28:02.186Z,18.25
2022-12-09T01:34:04.512Z,17.50
2022-12-09T01:40:12.006Z,16.50
2022-12-09T01:46:15.794Z,13.75
2022-12-09T01:52:24.268Z,18.50
2022-12-09T01:58:27.222Z,15.50
2022-12-09T02:04:32.890Z,14.50
2022-12-09T02:10:42.865Z,17.50
2022-12-09T02:17:14.594Z,17.00
2022-12-09T02:23:26.950Z,19.50
2022-12-09T02:29:57.991Z,20.00
2022-12-09T02:36:09.817Z,18.00
2022-12-09T02:42:20.645Z,17.50
2022-12-09T02:48:33.437Z,15.00
2022-12-09T02:54:40.244Z,18.25
2022-12-09T03:00:43.288Z,15.50
2022-12-09T03:06:53.272Z,17.75
2022-12-09T03:13:03.973Z,19.50
2022-12-09T03:19:14.156Z,19.00
2022-12-09T03:25:24.565Z,14.00
2022-12-09T03:31:32.656Z,14.75
2022-12-09T03:37:38.985Z,18.50
2022-12-09T03:43:48.205Z,18.00
2022-12-09T03:49:50.886Z,17.25
2022-12-09T03:56:09.071Z,20.00
2022-12-09T04:02:12.607Z,16.50
2022-12-09T04:08:15.214Z,17.50
2022-12-09T04:14:17.802Z,15.75
2022-12-09T04:20:20.461Z,19.00
2022-12-09T04:26:24.364Z,16.50
2022-12-09T04:32:26.668Z,19.00
2022-12-09T04:38:29.067Z,15.00
2022-12-09T04:44:32.912Z,14.75
2022-12-09T04:50:35.378Z,19.25
2022-12-09T04:56:37.579Z,16.75
2022-12-09T05:02:39.755Z,4.00
2022-12-09T05:08:42.767Z,17.00
2022-12-09T05:14:45.938Z,20.50
2022-12-09T05:20:48.331Z,16.00
2022-12-09T05:26:53.052Z,11.25
2022-12-09T05:32:56.092Z,15.33
2022-12-09T05:38:58.536Z,18.75
2022-12-09T05:45:03.047Z,17.25
2022-12-09T05:51:18.707Z,20.75
2022-12-09T05:57:21.228Z,20.00
2022-12-09T06:03:24.653Z,17.25
2022-12-09T06:09:27.975Z,16.25
2022-12-09T06:15:33.497Z,18.75
2022-12-09T06:21:40.342Z,18.50
2022-12-09T06:27:42.811Z,21.25
2022-12-09T06:33:54.639Z,17.75
2022-12-09T06:39:58.345Z,16.00
2022-12-09T06:46:02.183Z,14.00
2022-12-09T06:52:05.219Z,18.50
2022-12-09T06:58:09.492Z,17.50
2022-12-09T07:04:14.796Z,15.75
2022-12-09T07:10:18.435Z,19.00
2022-12-09T07:16:21.251Z,24.00
2022-12-09T07:22:23.862Z,22.00
2022-12-09T07:28:27.560Z,16.50
2022-12-09T07:34:30.277Z,18.25
2022-12-09T07:40:32.797Z,22.00
2022-12-09T07:46:37.180Z,23.00
2022-12-09T07:52:39.730Z,20.75
2022-12-09T07:58:43.901Z,24.50
2022-12-09T08:04:46.223Z,21.25
2022-12-09T08:10:50.053Z,23.00
2022-12-09T08:16:53.312Z,22.75
2022-12-09T08:22:58.530Z,21.25
2022-12-09T08:29:01.874Z,22.00
2022-12-09T08:35:06.673Z,27.50
2022-12-09T08:41:35.888Z,33.00
2022-12-09T08:47:38.688Z,25.75
2022-12-09T08:53:42.201Z,24.75
2022-12-09T08:59:53.171Z,17.00
2022-12-09T09:06:08.760Z,20.50
2022-12-09T09:12:18.813Z,22.00
2022-12-09T09:18:24.245Z,19.75
2022-12-09T09:24:26.823Z,22.00
2022-12-09T10:33:00.523Z,22.75
2022-12-09T10:39:06.002Z,26.00
2022-12-09T10:45:10.088Z,27.00
2022-12-09T10:51:20.873Z,27.25
2022-12-09T10:57:27.442Z,18.75
2022-12-09T11:03:32.418Z,24.00
2022-12-09T11:09:39.748Z,21.50
2022-12-09T11:15:46.149Z,27.00
2022-12-09T11:21:48.583Z,23.75
2022-12-09T11:28:21.623Z,28.25
2022-12-09T11:34:31.031Z,28.25
2022-12-09T11:40:34.919Z,27.00
2022-12-09T11:46:37.981Z,30.00
2022-12-09T11:52:43.576Z,26.00
2022-12-09T11:58:50.508Z,27.00
2022-12-09T12:05:01.949Z,30.75
2022-12-09T12:11:14.907Z,27.00
2022-12-09T12:17:26.025Z,30.00
2022-12-09T12:23:45.146Z,38.25
2022-12-09T12:30:10.098Z,30.00
2022-12-09T12:36:12.210Z,29.50
2022-12-09T12:42:32.739Z,31.00
2022-12-09T12:49:08.897Z,32.00
2022-12-09T12:55:19.608Z,32.50
2022-12-09T13:01:39.073Z,31.75
2022-12-09T13:07:59.721Z,32.25
2022-12-09T13:14:13.081Z,31.75
2022-12-09T13:20:49.384Z,31.75
2022-12-09T13:26:58.787Z,31.25
2022-12-09T13:33:22.512Z,30.25
2022-12-09T13:39:39.935Z,30.00
2022-12-09T13:45:51.129Z,31.00
2022-12-09T13:51:58.460Z,31.75
2022-12-09T13:58:15.968Z,31.50
2022-12-09T14:04:24.849Z,32.25
2022-12-09T14:10:45.466Z,32.00
2022-12-09T14:16:47.460Z,33.25
2022-12-09T14:23:05.058Z,34.25
2022-12-09T14:29:08.173Z,25.00
2022-12-09T14:35:13.758Z,31.00
2022-12-09T14:41:30.369Z,30.00
2022-12-09T14:47:39.699Z,35.50
2022-12-09T14:53:42.678Z,36.50
2022-12-09T14:59:54.190Z,37.00
2022-12-09T15:06:02.826Z,39.75
2022-12-09T15:12:11.768Z,38.25
2022-12-09T15:18:25.774Z,39.00
2022-12-09T15:24:48.913Z,38.00
2022-12-09T15:31:02.389Z,40.75
2022-12-09T15:37:06.425Z,39.75
2022-12-09T15:43:13.187Z,39.00
2022-12-09T15:49:21.373Z,40.00
2022-12-09T15:55:36.931Z,42.50
2022-12-09T16:01:39.014Z,40.25
2022-12-09T16:07:59.018Z,45.00
2022-12-09T16:14:01.628Z,44.25
2022-12-09T16:20:40.123Z,44.75
2022-12-09T16:26:47.065Z,46.00
2022-12-09T16:32:54.504Z,45.00
2022-12-09T16:39:09.331Z,42.00
2022-12-09T16:45:30.453Z,43.00
2022-12-09T16:51:33.804Z,37.75
2022-12-09T16:57:37.626Z,36.50
2022-12-09T17:04:04.494Z,36.25
2022-12-09T17:10:08.338Z,38.00
2022-12-09T17:16:10.976Z,38.00
2022-12-09T17:22:14.336Z,39.50
2022-12-09T17:28:17.343Z,40.75
2022-12-09T17:34:20.308Z,39.50
2022-12-09T17:40:22.613Z,39.25
2022-12-09T17:46:24.927Z,38.75
2022-12-09T17:52:27.211Z,40.00
2022-12-09T17:58:29.193Z,38.50
2022-12-09T18:04:32.305Z,39.00
2022-12-09T18:10:34.891Z,35.75
2022-12-09T18:16:39.159Z,38.50
2022-12-09T18:22:42.354Z,42.00
2022-12-09T18:28:47.098Z,42.75
2022-12-09T18:34:49.461Z,40.50
2022-12-09T18:41:03.738Z,42.50
2022-12-09T18:47:06.843Z,41.00
2022-12-09T18:53:13.303Z,42.25
2022-12-09T18:59:16.864Z,38.75
2022-12-09T19:05:19.347Z,36.50
2022-12-09T19:11:22.908Z,34.00
2022-12-09T19:17:25.796Z,31.00
2022-12-09T19:23:27.871Z,33.00
2022-12-09T19:29:29.882Z,31.25
2022-12-09T19:35:32.915Z,12.75
2022-12-09T19:41:37.328Z,31.75
2022-12-09T19:47:40.725Z,28.50
2022-12-09T19:53:44.417Z,26.75
2022-12-09T19:59:47.541Z,24.75
2022-12-09T20:05:52.830Z,22.25
2022-12-09T20:11:56.211Z,23.50
2022-12-09T20:17:58.705Z,17.75
2022-12-09T20:24:02.675Z,23.00
2022-12-09T20:30:07.310Z,20.00
2022-12-09T20:36:16.460Z,27.75
2022-12-09T20:42:21.126Z,25.75
2022-12-09T20:48:23.915Z,24.50
2022-12-09T20:54:26.243Z,22.75
2022-12-09T21:00:29.653Z,25.00
2022-12-09T21:06:36.050Z,25.25
2022-12-09T21:12:41.666Z,24.50
2022-12-09T21:18:44.344Z,25.00
2022-12-09T21:24:47.450Z,23.00
2022-12-09T21:30:49.530Z,24.25
2022-12-09T21:36:53.875Z,16.50
2022-12-09T21:42:57.436Z,19.00
2022-12-09T21:49:04.271Z,23.00
2022-12-09T21:55:10.667Z,21.00
2022-12-09T22:01:17.973Z,21.00
2022-12-09T22:07:20.488Z,24.25
2022-12-09T22:13:23.267Z,25.00
2022-12-09T22:19:27.004Z,24.75
2022-12-09T22:25:29.295Z,27.50
2022-12-09T22:31:35.962Z,27.00
2022-12-09T22:37:45.360Z,29.50
2022-12-09T22:43:53.401Z,24.00
2022-12-09T22:49:56.763Z,22.25
2022-12-09T22:55:59.279Z,25.75
2022-12-09T23:02:04.856Z,22.25
2022-12-09T23:08:08.985Z,25.75
2022-12-09T23:14:14.806Z,26.00
2022-12-09T23:20:17.575Z,24.00
2022-12-09T23:26:24.357Z,28.00
2022-12-09T23:32:26.800Z,26.50
2022-12-09T23:38:29.907Z,24.50
2022-12-09T23:44:32.453Z,22.00
2022-12-09T23:50:34.552Z,30.25
2022-12-09T23:56:44.563Z,26.50
